Airport details for: LHPR (Hungary)

Metar

LHPR 250845Z 26003KT 210V330 9999 BKN039 07/02 Q1028 RMK BLU

General details

ICAO: LHPR
IATA: QGY
Name (city): Gyor Per
Major:
Country: Hungary
vACC: vACC Hungary
Description:

Győr-Pér Airport  is a public commercial airport with international operation capability. The airport is located about 15 km from Győr city centre, equipped with a grass (12L/30R) and with an asphalt (12/30) runway.

Scenery links:
FS9 scenery: Download
FSX/P3D scenery: Download
XP scenery:
Elevation: 426 ft.
Transition altitude: 9000 ft.
MSA: 6600 ft.
Latitude: 47.624445
Longitude: 17.813889
LHPR Charts
LHPR Notams
LHPR Online stations

Runways

Number Course Length Elevation Lat Lon ILS ILS freq ILS FAC GP
12 116° 6660ft / 2030 m 415ft 47.632872 17.793231 - - 3.0°
30 296° 6660ft / 2030 m 426ft 47.623895 17.81675 - - 3.0°